Temp: 5.2°C   Baro: 1000.3mb
  Wind: 0.0mph   Dir: WSW (242°)
  Rain: 0.0mm (0.0mm/hr)
  Solar: 65W/m2  Hum: 90%

10 day detailed forecast for Bath, United Kingdom

Last update: 16.12.2019 08:46
Next update: 16.12.2019 14:49
Latitude: 51.38° N
Longitude: 2.36° W
meteogram
    Temperature Precipitation Pressure Wind Humidity Clouds Fog
 08:08     16:01 Today
11:00   1000.3 mb 7 mph 87% 100%
12:00   999.9 mb 6 mph 86% 100%
13:00   999.5 mb 5 mph 86% 100%
14:00   999.3 mb 5 mph 88% 100%
15:00   999.4 mb 3 mph 92% 100%
16:00   999.5 mb 4 mph 96% 100%
17:00   999.3 mb 4 mph 96% 100%
18:00   998.9 mb 3 mph 97% 100%
19:00   998.6 mb 3 mph 98% 100%
20:00   998.4 mb 3 mph 98% 100%
21:00   998.5 mb 3 mph 98% 100%
22:00   998.2 mb 3 mph 99% 100%
23:00   998.0 mb 2 mph 99% 100% 2%
 08:09     16:01 Tomorrow
00:00   997.6 mb 4 mph 100% 100% 66%
01:00   997.5 mb 4 mph 100% 100% 75%
02:00   997.4 mb 3 mph 100% 100% 76%
03:00 0.1 mm 997.2 mb 3 mph 100% 100% 76%
04:00   996.8 mb 4 mph 100% 100% 76%
05:00 0.1 mm 997.0 mb 5 mph 99% 100% 77%
06:00 0.1 mm 997.1 mb 6 mph 100% 100% 77%
07:00   997.4 mb 5 mph 99% 100% 77%
08:00   998.0 mb 5 mph 99% 100% 77%
09:00 0.1 mm 998.7 mb 4 mph 99% 100% 75%
10:00 0.1 mm 999.1 mb 4 mph 97% 100% 2%
11:00   999.7 mb 4 mph 95% 98%
12:00   999.7 mb 5 mph 93% 92%
13:00   1000.1 mb 5 mph 89% 93%
14:00   1000.7 mb 6 mph 88% 77%
15:00   1001.3 mb 6 mph 88% 60%
16:00   1002.1 mb 5 mph 89% 7%
17:00   1002.6 mb 5 mph 88% 16%
18:00   1003.2 mb 5 mph 91% 6%
19:00   1003.9 mb 6 mph 93% 0%
20:00   1004.8 mb 7 mph 91% 0%
21:00   1005.5 mb 6 mph 90% 80%
22:00   1006.1 mb 6 mph 89% 83%
23:00   1006.5 mb 5 mph 90% 44%
 08:10     16:01 Wednesday 18.12.2019
00:00   1007.0 mb 5 mph 92% 84%
01:00   1007.3 mb 5 mph 93% 3%
02:00   1007.5 mb 5 mph 95% 20%
03:00   1007.6 mb 5 mph 95% 28%
04:00   1007.4 mb 6 mph 93% 6%
05:00   1007.7 mb 7 mph 92% 8%
06:00   1008.1 mb 7 mph 93% 16%
07:00   1008.0 mb 8 mph 94% 60%
08:00   1008.3 mb 7 mph 95% 27%
09:00   1008.3 mb 9 mph 95% 41%
10:00   1008.2 mb 11 mph 91% 92%
11:00   1007.4 mb 13 mph 86% 64%
12:00   1006.3 mb 15 mph 85% 98%
13:00   1005.7 mb 16 mph 83% 16%
14:00   1004.8 mb 17 mph 82% 99%
15:00   1004.2 mb 17 mph 86% 100%
16:00   1003.2 mb 18 mph 89% 100%
17:00   1002.6 mb 19 mph 86% 99%
18:00 0.1 mm 1001.9 mb 19 mph 85% 98%
19:00   1001.3 mb 20 mph 81% 100%
20:00 0.6 mm 1000.5 mb 19 mph 84% 100%
21:00 1.3 mm 999.7 mb 19 mph 88% 100%
22:00 1.1 mm 999.0 mb 21 mph 89% 100%
23:00 0.9 mm 998.3 mb 20 mph 90% 100%
 08:10     16:01 Thursday 19.12.2019
00:00 0.7 mm 997.7 mb 20 mph 91% 100%
06:00 2.8 mm 996.2 mb 13 mph 96% 100%
12:00 3.0 mm 995.4 mb 15 mph 90% 96%
18:00 2.8 mm 990.9 mb 15 mph 93% 99%
 08:11     16:02 Friday 20.12.2019
00:00 2.3 mm 987.1 mb 8 mph 95% 100%
06:00 6.3 mm 978.1 mb 10 mph 93% 100%
12:00 3.5 mm 974.6 mb 20 mph 92% 99%
18:00 2.4 mm 980.5 mb 14 mph 90% 66%
 08:12     16:02 Saturday 21.12.2019
00:00   982.4 mb 7 mph 95% 91%
06:00   984.1 mb 4 mph 98% 83%
12:00   987.8 mb 11 mph 85% 48%
18:00 1.2 mm 981.2 mb 9 mph 91% 100%
 08:12     16:03 Sunday 22.12.2019
00:00 4.7 mm 978.0 mb 12 mph 90% 48%
06:00 0.1 mm 982.1 mb 12 mph 94% 78%
12:00   996.9 mb 11 mph 83% 3%
18:00   1003.7 mb 11 mph 89% 43%
 08:13     16:03 Monday 23.12.2019
00:00   1004.3 mb 9 mph 93% 100%
06:00 2.6 mm 999.1 mb 6 mph 92% 100%
12:00   999.2 mb 9 mph 91% 23%
18:00   1002.5 mb 11 mph 90% 31%
 08:13     16:04 Tuesday 24.12.2019
00:00 0.1 mm 1005.6 mb 13 mph 89% 48%
06:00   1008.3 mb 13 mph 90% 44%
12:00 0.1 mm 1011.8 mb 12 mph 84% 66%
18:00 0.1 mm 1014.1 mb 7 mph 91% 100%
 08:13     16:04 Wednesday 25.12.2019
00:00   1014.5 mb 6 mph 94% 100%
06:00 0.2 mm 1013.0 mb 4 mph 97% 100%
12:00 0.5 mm 1014.5 mb 12 mph 87% 72%
18:00   1020.3 mb 12 mph 91% 2%